This is the latest recevied weather packets stored in our database for station/object YO8PIC-5. If no packets are shown the sender has not sent any weather packets the latest 10 day(s).
| Time | Temp. | Humidity | Pressure | Rain* | Wind** | Luminosity | Snow |
|---|---|---|---|---|---|---|---|
| 1777554714 | 13.33° C | 23% | 1023.9 hPa | - | - | - | - |
| 1777553814 | 10.56° C | 27% | 1023.9 hPa | - | - | - | - |
| 1777552913 | 9.44° C | 29% | 1024 hPa | - | - | - | - |
| 1777552018 | 10.56° C | 29% | 1024.1 hPa | - | - | - | - |
| 1777551117 | 9.44° C | 26% | 1024.3 hPa | - | - | - | - |
| 1777550217 | 10° C | 26% | 1024.4 hPa | - | - | - | - |
| 1777549317 | 14.44° C | 24% | 1024.7 hPa | - | - | - | - |
| 1777548417 | 10.56° C | 30% | 1024.7 hPa | - | - | - | - |
| 1777547517 | 9.44° C | 30% | 1024.7 hPa | - | - | - | - |
| 1777546616 | 10° C | 27% | 1024.8 hPa | - | - | - | - |
| 1777545716 | 9.44° C | 28% | 1024.7 hPa | - | - | - | - |
| 1777544816 | 12.22° C | 27% | 1025 hPa | - | - | - | - |
| 1777543916 | 10.56° C | 27% | 1025 hPa | - | - | - | - |
| 1777543016 | 10.56° C | 28% | 1024.9 hPa | - | - | - | - |
| 1777542115 | 11.67° C | 26% | 1025.1 hPa | - | - | - | - |
| 1777541215 | 10° C | 31% | 1025.1 hPa | - | - | - | - |
| 1777540315 | 9.44° C | 30% | 1025 hPa | - | - | - | - |
| 1777539415 | 9.44° C | 30% | 1025 hPa | - | - | - | - |
| 1777538514 | 11.67° C | 31% | 1025 hPa | - | - | - | - |
| 1777537614 | 10° C | 28% | 1025.1 hPa | - | - | - | - |
| 1777536714 | 13.89° C | 21% | 1025.2 hPa | - | - | - | - |
| 1777535814 | 11.67° C | 27% | 1025.4 hPa | - | - | - | - |
| 1777534914 | 12.22° C | 28% | 1025.3 hPa | - | - | - | - |
| 1777534013 | 10° C | 32% | 1025.4 hPa | - | - | - | - |
| 1777533113 | 11.67° C | 29% | 1025.4 hPa | - | - | - | - |
* Rain since midnight (hover to see other rain measurements)
** Current wind speed in m/s (hover to see current wind gust speed)